sensor_id;sensor_type;location;lat;lon;timestamp;temperature;humidity
66568;DHT22;53422;49.296;6.900;2023-11-21T00:00:10;9.20;99.90
66568;DHT22;53422;49.296;6.900;2023-11-21T00:02:38;9.30;99.90
66568;DHT22;53422;49.296;6.900;2023-11-21T00:05:08;9.30;99.90
66568;DHT22;53422;49.296;6.900;2023-11-21T00:07:38;9.20;99.90
66568;DHT22;53422;49.296;6.900;2023-11-21T00:10:04;9.20;99.90
66568;DHT22;53422;49.296;6.900;2023-11-21T00:12:34;9.20;99.90
66568;DHT22;53422;49.296;6.900;2023-11-21T00:15:00;9.30;99.90
66568;DHT22;53422;49.296;6.900;2023-11-21T00:17:27;9.30;99.90
66568;DHT22;53422;49.296;6.900;2023-11-21T00:19:52;9.30;99.90
66568;DHT22;53422;49.296;6.900;2023-11-21T00:22:18;9.30;99.90
66568;DHT22;53422;49.296;6.900;2023-11-21T00:24:44;9.20;99.90
66568;DHT22;53422;49.296;6.900;2023-11-21T00:27:10;9.20;99.90
66568;DHT22;53422;49.296;6.900;2023-11-21T00:29:36;9.20;99.90
66568;DHT22;53422;49.296;6.900;2023-11-21T00:32:01;9.20;99.90
66568;DHT22;53422;49.296;6.900;2023-11-21T00:34:27;9.20;99.90
66568;DHT22;53422;49.296;6.900;2023-11-21T00:36:53;9.20;99.90
66568;DHT22;53422;49.296;6.900;2023-11-21T00:39:19;9.20;99.90
66568;DHT22;53422;49.296;6.900;2023-11-21T00:41:44;9.20;99.90
66568;DHT22;53422;49.296;6.900;2023-11-21T00:44:10;9.20;99.90
66568;DHT22;53422;49.296;6.900;2023-11-21T00:46:36;9.20;99.90
66568;DHT22;53422;49.296;6.900;2023-11-21T00:49:02;9.20;99.90
66568;DHT22;53422;49.296;6.900;2023-11-21T00:51:30;9.20;99.90
66568;DHT22;53422;49.296;6.900;2023-11-21T00:53:55;9.20;99.90
66568;DHT22;53422;49.296;6.900;2023-11-21T00:56:22;9.20;99.90
66568;DHT22;53422;49.296;6.900;2023-11-21T00:58:47;9.20;99.90
66568;DHT22;53422;49.296;6.900;2023-11-21T01:01:16;9.20;99.90
66568;DHT22;53422;49.296;6.900;2023-11-21T01:03:42;9.20;99.90
66568;DHT22;53422;49.296;6.900;2023-11-21T01:06:08;9.20;99.90
66568;DHT22;53422;49.296;6.900;2023-11-21T01:08:34;9.20;99.90
66568;DHT22;53422;49.296;6.900;2023-11-21T01:11:00;9.20;99.90
66568;DHT22;53422;49.296;6.900;2023-11-21T01:13:25;9.20;99.90
66568;DHT22;53422;49.296;6.900;2023-11-21T01:15:55;9.20;99.90
66568;DHT22;53422;49.296;6.900;2023-11-21T01:18:21;9.20;99.90
66568;DHT22;53422;49.296;6.900;2023-11-21T01:20:46;9.20;99.90
66568;DHT22;53422;49.296;6.900;2023-11-21T01:23:13;9.30;99.90
66568;DHT22;53422;49.296;6.900;2023-11-21T01:25:39;9.20;99.90
66568;DHT22;53422;49.296;6.900;2023-11-21T01:28:04;9.20;99.90
66568;DHT22;53422;49.296;6.900;2023-11-21T01:30:30;9.20;99.90
66568;DHT22;53422;49.296;6.900;2023-11-21T01:32:58;9.30;99.90
66568;DHT22;53422;49.296;6.900;2023-11-21T01:35:24;9.20;99.90
66568;DHT22;53422;49.296;6.900;2023-11-21T01:37:49;9.20;99.90
66568;DHT22;53422;49.296;6.900;2023-11-21T01:40:15;9.20;99.90
66568;DHT22;53422;49.296;6.900;2023-11-21T01:42:41;9.20;99.90
66568;DHT22;53422;49.296;6.900;2023-11-21T01:45:09;9.30;99.90
66568;DHT22;53422;49.296;6.900;2023-11-21T01:47:36;9.30;99.90
66568;DHT22;53422;49.296;6.900;2023-11-21T01:50:03;9.20;99.90
66568;DHT22;53422;49.296;6.900;2023-11-21T01:52:34;9.20;99.90
66568;DHT22;53422;49.296;6.900;2023-11-21T01:55:00;9.20;99.90
66568;DHT22;53422;49.296;6.900;2023-11-21T01:57:26;9.20;99.90
66568;DHT22;53422;49.296;6.900;2023-11-21T01:59:54;9.20;99.90
66568;DHT22;53422;49.296;6.900;2023-11-21T02:02:20;9.20;99.90
66568;DHT22;53422;49.296;6.900;2023-11-21T02:04:45;9.10;99.90
66568;DHT22;53422;49.296;6.900;2023-11-21T02:07:11;9.20;99.90
66568;DHT22;53422;49.296;6.900;2023-11-21T02:09:37;9.20;99.90
66568;DHT22;53422;49.296;6.900;2023-11-21T02:12:08;9.20;99.90
66568;DHT22;53422;49.296;6.900;2023-11-21T02:14:36;9.20;99.90
66568;DHT22;53422;49.296;6.900;2023-11-21T02:17:02;9.20;99.90
66568;DHT22;53422;49.296;6.900;2023-11-21T02:19:29;9.20;99.90
66568;DHT22;53422;49.296;6.900;2023-11-21T02:21:57;9.10;99.90
66568;DHT22;53422;49.296;6.900;2023-11-21T02:24:32;9.20;99.90
66568;DHT22;53422;49.296;6.900;2023-11-21T02:26:57;9.20;99.90
66568;DHT22;53422;49.296;6.900;2023-11-21T02:29:23;9.20;99.90
66568;DHT22;53422;49.296;6.900;2023-11-21T02:31:54;9.20;99.90
66568;DHT22;53422;49.296;6.900;2023-11-21T02:34:20;9.10;99.90
66568;DHT22;53422;49.296;6.900;2023-11-21T02:36:47;9.20;99.90
66568;DHT22;53422;49.296;6.900;2023-11-21T02:39:15;9.20;99.90
66568;DHT22;53422;49.296;6.900;2023-11-21T02:41:42;9.20;99.90
66568;DHT22;53422;49.296;6.900;2023-11-21T02:44:08;9.20;99.90
66568;DHT22;53422;49.296;6.900;2023-11-21T02:46:34;9.20;99.90
66568;DHT22;53422;49.296;6.900;2023-11-21T02:49:04;9.20;99.90
66568;DHT22;53422;49.296;6.900;2023-11-21T02:51:31;9.20;99.90
66568;DHT22;53422;49.296;6.900;2023-11-21T02:53:57;9.20;99.90
66568;DHT22;53422;49.296;6.900;2023-11-21T02:56:27;9.20;99.90
66568;DHT22;53422;49.296;6.900;2023-11-21T02:58:55;9.20;99.90
66568;DHT22;53422;49.296;6.900;2023-11-21T03:01:22;9.20;99.90
66568;DHT22;53422;49.296;6.900;2023-11-21T03:03:49;9.20;99.90
66568;DHT22;53422;49.296;6.900;2023-11-21T03:06:17;9.10;99.90
66568;DHT22;53422;49.296;6.900;2023-11-21T03:08:43;9.10;99.90
66568;DHT22;53422;49.296;6.900;2023-11-21T03:11:09;9.20;99.90
66568;DHT22;53422;49.296;6.900;2023-11-21T03:13:34;9.20;99.90
66568;DHT22;53422;49.296;6.900;2023-11-21T03:16:00;9.20;99.90
66568;DHT22;53422;49.296;6.900;2023-11-21T03:18:26;9.20;99.90
66568;DHT22;53422;49.296;6.900;2023-11-21T03:20:55;9.20;99.90
66568;DHT22;53422;49.296;6.900;2023-11-21T03:23:20;9.10;99.90
66568;DHT22;53422;49.296;6.900;2023-11-21T03:25:46;9.20;99.90
66568;DHT22;53422;49.296;6.900;2023-11-21T03:28:11;9.20;99.90
66568;DHT22;53422;49.296;6.900;2023-11-21T03:30:37;9.20;99.90
66568;DHT22;53422;49.296;6.900;2023-11-21T03:33:03;9.20;99.90
66568;DHT22;53422;49.296;6.900;2023-11-21T03:35:28;9.20;99.90
66568;DHT22;53422;49.296;6.900;2023-11-21T03:37:54;9.20;99.90
66568;DHT22;53422;49.296;6.900;2023-11-21T03:40:20;9.20;99.90
66568;DHT22;53422;49.296;6.900;2023-11-21T03:42:48;9.20;99.90
66568;DHT22;53422;49.296;6.900;2023-11-21T03:45:14;9.20;99.90
66568;DHT22;53422;49.296;6.900;2023-11-21T03:47:41;9.20;99.90
66568;DHT22;53422;49.296;6.900;2023-11-21T03:50:07;9.20;99.90
66568;DHT22;53422;49.296;6.900;2023-11-21T03:52:34;9.20;99.90
66568;DHT22;53422;49.296;6.900;2023-11-21T03:55:01;9.20;99.90
66568;DHT22;53422;49.296;6.900;2023-11-21T03:57:27;9.20;99.90
66568;DHT22;53422;49.296;6.900;2023-11-21T03:59:53;9.20;99.90
66568;DHT22;53422;49.296;6.900;2023-11-21T04:02:19;9.20;99.90
66568;DHT22;53422;49.296;6.900;2023-11-21T04:04:45;9.20;99.90
66568;DHT22;53422;49.296;6.900;2023-11-21T04:07:10;9.20;99.90
66568;DHT22;53422;49.296;6.900;2023-11-21T04:09:36;9.20;99.90
66568;DHT22;53422;49.296;6.900;2023-11-21T04:12:02;9.20;99.90
66568;DHT22;53422;49.296;6.900;2023-11-21T04:14:28;9.20;99.90
66568;DHT22;53422;49.296;6.900;2023-11-21T04:16:54;9.10;99.90
66568;DHT22;53422;49.296;6.900;2023-11-21T04:19:20;9.20;99.90
66568;DHT22;53422;49.296;6.900;2023-11-21T04:21:46;9.20;99.90
66568;DHT22;53422;49.296;6.900;2023-11-21T04:24:11;9.20;99.90
66568;DHT22;53422;49.296;6.900;2023-11-21T04:26:37;9.10;99.90
66568;DHT22;53422;49.296;6.900;2023-11-21T04:29:03;9.20;99.90
66568;DHT22;53422;49.296;6.900;2023-11-21T04:31:30;9.20;99.90
66568;DHT22;53422;49.296;6.900;2023-11-21T04:33:56;9.20;99.90
66568;DHT22;53422;49.296;6.900;2023-11-21T04:36:21;9.20;99.90
66568;DHT22;53422;49.296;6.900;2023-11-21T04:38:47;9.20;99.90
66568;DHT22;53422;49.296;6.900;2023-11-21T04:41:13;9.20;99.90
66568;DHT22;53422;49.296;6.900;2023-11-21T04:43:38;9.20;99.90
66568;DHT22;53422;49.296;6.900;2023-11-21T04:46:04;9.10;99.90
66568;DHT22;53422;49.296;6.900;2023-11-21T04:48:30;9.20;99.90
66568;DHT22;53422;49.296;6.900;2023-11-21T04:50:56;9.10;99.90
66568;DHT22;53422;49.296;6.900;2023-11-21T04:53:21;9.10;99.90
66568;DHT22;53422;49.296;6.900;2023-11-21T04:55:47;9.20;99.90
66568;DHT22;53422;49.296;6.900;2023-11-21T04:58:14;9.20;99.90
66568;DHT22;53422;49.296;6.900;2023-11-21T05:00:39;9.10;99.90
66568;DHT22;53422;49.296;6.900;2023-11-21T05:03:06;9.10;99.90
66568;DHT22;53422;49.296;6.900;2023-11-21T05:05:32;9.20;99.90
66568;DHT22;53422;49.296;6.900;2023-11-21T05:07:59;9.20;99.90
66568;DHT22;53422;49.296;6.900;2023-11-21T05:10:25;9.10;99.90
66568;DHT22;53422;49.296;6.900;2023-11-21T05:12:50;9.10;99.90
66568;DHT22;53422;49.296;6.900;2023-11-21T05:15:17;9.10;99.90
66568;DHT22;53422;49.296;6.900;2023-11-21T05:17:43;9.20;99.90
66568;DHT22;53422;49.296;6.900;2023-11-21T05:20:14;9.10;99.90
66568;DHT22;53422;49.296;6.900;2023-11-21T05:22:43;9.20;99.90
66568;DHT22;53422;49.296;6.900;2023-11-21T05:25:09;9.10;99.90
66568;DHT22;53422;49.296;6.900;2023-11-21T05:27:35;9.20;99.90
66568;DHT22;53422;49.296;6.900;2023-11-21T05:30:03;9.20;99.90
66568;DHT22;53422;49.296;6.900;2023-11-21T05:32:31;9.20;99.90
66568;DHT22;53422;49.296;6.900;2023-11-21T05:34:56;9.20;99.90
66568;DHT22;53422;49.296;6.900;2023-11-21T05:37:22;9.20;99.90
66568;DHT22;53422;49.296;6.900;2023-11-21T05:39:49;9.20;99.90
66568;DHT22;53422;49.296;6.900;2023-11-21T05:42:14;9.10;99.90
66568;DHT22;53422;49.296;6.900;2023-11-21T05:44:42;9.20;99.90
66568;DHT22;53422;49.296;6.900;2023-11-21T05:47:08;9.20;99.90
66568;DHT22;53422;49.296;6.900;2023-11-21T05:49:35;9.20;99.90
66568;DHT22;53422;49.296;6.900;2023-11-21T05:52:01;9.10;99.90
66568;DHT22;53422;49.296;6.900;2023-11-21T05:54:26;9.20;99.90
66568;DHT22;53422;49.296;6.900;2023-11-21T05:56:52;9.20;99.90
66568;DHT22;53422;49.296;6.900;2023-11-21T05:59:18;9.20;99.90
66568;DHT22;53422;49.296;6.900;2023-11-21T06:01:43;9.20;99.90
66568;DHT22;53422;49.296;6.900;2023-11-21T06:04:11;9.10;99.90
66568;DHT22;53422;49.296;6.900;2023-11-21T06:06:38;9.10;99.90
66568;DHT22;53422;49.296;6.900;2023-11-21T06:09:04;9.10;99.90
66568;DHT22;53422;49.296;6.900;2023-11-21T06:11:31;9.10;99.90
66568;DHT22;53422;49.296;6.900;2023-11-21T06:13:57;9.10;99.90
66568;DHT22;53422;49.296;6.900;2023-11-21T06:16:23;9.20;99.90
66568;DHT22;53422;49.296;6.900;2023-11-21T06:18:49;9.10;99.90
66568;DHT22;53422;49.296;6.900;2023-11-21T06:21:15;9.10;99.90
66568;DHT22;53422;49.296;6.900;2023-11-21T06:23:42;9.10;99.90
66568;DHT22;53422;49.296;6.900;2023-11-21T06:26:08;9.10;99.90
66568;DHT22;53422;49.296;6.900;2023-11-21T06:28:35;9.10;99.90
66568;DHT22;53422;49.296;6.900;2023-11-21T06:31:01;9.10;99.90
66568;DHT22;53422;49.296;6.900;2023-11-21T06:33:31;9.10;99.90
66568;DHT22;53422;49.296;6.900;2023-11-21T06:35:57;9.10;99.90
66568;DHT22;53422;49.296;6.900;2023-11-21T06:38:23;9.10;99.90
66568;DHT22;53422;49.296;6.900;2023-11-21T06:40:48;9.10;99.90
66568;DHT22;53422;49.296;6.900;2023-11-21T06:43:14;9.10;99.90
66568;DHT22;53422;49.296;6.900;2023-11-21T06:45:40;9.10;99.90
66568;DHT22;53422;49.296;6.900;2023-11-21T06:48:06;9.10;99.90
66568;DHT22;53422;49.296;6.900;2023-11-21T06:50:32;9.10;99.90
66568;DHT22;53422;49.296;6.900;2023-11-21T06:52:58;9.00;99.90
66568;DHT22;53422;49.296;6.900;2023-11-21T06:55:23;9.00;99.90
66568;DHT22;53422;49.296;6.900;2023-11-21T06:57:49;9.00;99.90
66568;DHT22;53422;49.296;6.900;2023-11-21T07:00:18;9.00;99.90
66568;DHT22;53422;49.296;6.900;2023-11-21T07:02:44;9.10;99.90
66568;DHT22;53422;49.296;6.900;2023-11-21T07:05:10;9.10;99.90
66568;DHT22;53422;49.296;6.900;2023-11-21T07:07:36;9.00;99.90
66568;DHT22;53422;49.296;6.900;2023-11-21T07:10:03;9.00;99.90
66568;DHT22;53422;49.296;6.900;2023-11-21T07:12:30;9.00;99.90
66568;DHT22;53422;49.296;6.900;2023-11-21T07:14:57;9.00;99.90
66568;DHT22;53422;49.296;6.900;2023-11-21T07:17:22;9.10;99.90
66568;DHT22;53422;49.296;6.900;2023-11-21T07:19:48;9.10;99.90
66568;DHT22;53422;49.296;6.900;2023-11-21T07:22:15;9.10;99.90
66568;DHT22;53422;49.296;6.900;2023-11-21T07:24:48;9.00;99.90
66568;DHT22;53422;49.296;6.900;2023-11-21T07:27:15;9.10;99.90
66568;DHT22;53422;49.296;6.900;2023-11-21T07:29:41;9.10;99.90
66568;DHT22;53422;49.296;6.900;2023-11-21T07:32:06;9.00;99.90
66568;DHT22;53422;49.296;6.900;2023-11-21T07:34:34;9.00;99.90
66568;DHT22;53422;49.296;6.900;2023-11-21T07:37:00;9.00;99.90
66568;DHT22;53422;49.296;6.900;2023-11-21T07:39:26;9.00;99.90
66568;DHT22;53422;49.296;6.900;2023-11-21T07:41:51;9.00;99.90
66568;DHT22;53422;49.296;6.900;2023-11-21T07:44:17;9.00;99.90
66568;DHT22;53422;49.296;6.900;2023-11-21T07:46:43;9.00;99.90
66568;DHT22;53422;49.296;6.900;2023-11-21T07:49:09;9.00;99.90
66568;DHT22;53422;49.296;6.900;2023-11-21T07:51:35;9.00;99.90
66568;DHT22;53422;49.296;6.900;2023-11-21T07:54:01;9.00;99.90
66568;DHT22;53422;49.296;6.900;2023-11-21T07:56:26;9.00;99.90
66568;DHT22;53422;49.296;6.900;2023-11-21T07:58:52;9.00;99.90
66568;DHT22;53422;49.296;6.900;2023-11-21T08:01:19;9.00;99.90
66568;DHT22;53422;49.296;6.900;2023-11-21T08:03:45;9.00;99.90
66568;DHT22;53422;49.296;6.900;2023-11-21T08:06:10;9.00;99.90
66568;DHT22;53422;49.296;6.900;2023-11-21T08:08:37;9.00;99.90
66568;DHT22;53422;49.296;6.900;2023-11-21T08:11:03;9.00;99.90
66568;DHT22;53422;49.296;6.900;2023-11-21T08:13:29;9.00;99.90
66568;DHT22;53422;49.296;6.900;2023-11-21T08:15:58;9.00;99.90
66568;DHT22;53422;49.296;6.900;2023-11-21T08:18:31;9.00;99.90
66568;DHT22;53422;49.296;6.900;2023-11-21T08:20:57;9.00;99.90
66568;DHT22;53422;49.296;6.900;2023-11-21T08:23:22;9.00;99.90
66568;DHT22;53422;49.296;6.900;2023-11-21T08:25:52;9.00;99.90
66568;DHT22;53422;49.296;6.900;2023-11-21T08:28:18;9.00;99.90
66568;DHT22;53422;49.296;6.900;2023-11-21T08:30:44;9.00;99.90
66568;DHT22;53422;49.296;6.900;2023-11-21T08:33:10;9.00;99.90
66568;DHT22;53422;49.296;6.900;2023-11-21T08:35:37;9.00;99.90
66568;DHT22;53422;49.296;6.900;2023-11-21T08:38:03;9.00;99.90
66568;DHT22;53422;49.296;6.900;2023-11-21T08:40:29;9.00;99.90
66568;DHT22;53422;49.296;6.900;2023-11-21T08:42:55;9.10;99.90
66568;DHT22;53422;49.296;6.900;2023-11-21T08:45:21;9.10;99.90
66568;DHT22;53422;49.296;6.900;2023-11-21T08:47:47;9.00;99.90
66568;DHT22;53422;49.296;6.900;2023-11-21T08:50:13;9.00;99.90
66568;DHT22;53422;49.296;6.900;2023-11-21T08:52:40;9.10;99.90
66568;DHT22;53422;49.296;6.900;2023-11-21T08:55:07;9.10;99.90
66568;DHT22;53422;49.296;6.900;2023-11-21T08:57:37;9.10;99.90
66568;DHT22;53422;49.296;6.900;2023-11-21T09:00:06;9.10;99.90
66568;DHT22;53422;49.296;6.900;2023-11-21T09:02:35;9.10;99.90
66568;DHT22;53422;49.296;6.900;2023-11-21T09:05:05;9.10;99.90
66568;DHT22;53422;49.296;6.900;2023-11-21T09:07:31;9.20;99.90
66568;DHT22;53422;49.296;6.900;2023-11-21T09:09:57;9.20;99.90
66568;DHT22;53422;49.296;6.900;2023-11-21T09:12:22;9.20;99.90
66568;DHT22;53422;49.296;6.900;2023-11-21T09:14:50;9.20;99.90
66568;DHT22;53422;49.296;6.900;2023-11-21T09:17:16;9.20;99.90
66568;DHT22;53422;49.296;6.900;2023-11-21T09:19:42;9.20;99.90
66568;DHT22;53422;49.296;6.900;2023-11-21T09:22:10;9.20;99.90
66568;DHT22;53422;49.296;6.900;2023-11-21T09:24:36;9.30;99.90
66568;DHT22;53422;49.296;6.900;2023-11-21T09:27:03;9.30;99.90
66568;DHT22;53422;49.296;6.900;2023-11-21T09:29:30;9.30;99.90
66568;DHT22;53422;49.296;6.900;2023-11-21T09:31:57;9.30;99.90
66568;DHT22;53422;49.296;6.900;2023-11-21T09:34:25;9.30;99.90
66568;DHT22;53422;49.296;6.900;2023-11-21T09:36:51;9.30;99.90
66568;DHT22;53422;49.296;6.900;2023-11-21T09:39:17;9.40;99.90
66568;DHT22;53422;49.296;6.900;2023-11-21T09:44:58;9.40;99.90
66568;DHT22;53422;49.296;6.900;2023-11-21T09:47:29;9.40;99.90
66568;DHT22;53422;49.296;6.900;2023-11-21T09:49:56;9.40;99.90
66568;DHT22;53422;49.296;6.900;2023-11-21T09:52:27;9.40;99.90
66568;DHT22;53422;49.296;6.900;2023-11-21T09:54:54;9.40;99.90
66568;DHT22;53422;49.296;6.900;2023-11-21T09:57:24;9.40;99.90
66568;DHT22;53422;49.296;6.900;2023-11-21T09:59:52;9.40;99.90
66568;DHT22;53422;49.296;6.900;2023-11-21T10:02:26;9.40;99.90
66568;DHT22;53422;49.296;6.900;2023-11-21T10:04:54;9.50;99.90
66568;DHT22;53422;49.296;6.900;2023-11-21T10:07:20;9.50;99.90
66568;DHT22;53422;49.296;6.900;2023-11-21T10:09:47;9.50;99.90
66568;DHT22;53422;49.296;6.900;2023-11-21T10:12:15;9.50;99.90
66568;DHT22;53422;49.296;6.900;2023-11-21T10:14:42;9.50;99.90
66568;DHT22;53422;49.296;6.900;2023-11-21T10:17:10;9.50;99.90
66568;DHT22;53422;49.296;6.900;2023-11-21T10:19:39;9.50;99.90
66568;DHT22;53422;49.296;6.900;2023-11-21T10:22:05;9.60;99.90
66568;DHT22;53422;49.296;6.900;2023-11-21T10:24:32;9.50;99.90
66568;DHT22;53422;49.296;6.900;2023-11-21T10:26:58;9.50;99.90
66568;DHT22;53422;49.296;6.900;2023-11-21T10:29:25;9.60;99.90
66568;DHT22;53422;49.296;6.900;2023-11-21T10:31:52;9.50;99.90
66568;DHT22;53422;49.296;6.900;2023-11-21T10:34:20;9.60;99.90
66568;DHT22;53422;49.296;6.900;2023-11-21T10:36:46;9.60;99.90
66568;DHT22;53422;49.296;6.900;2023-11-21T10:39:20;9.60;99.90
66568;DHT22;53422;49.296;6.900;2023-11-21T10:41:49;9.60;99.90
66568;DHT22;53422;49.296;6.900;2023-11-21T10:44:16;9.60;99.90
66568;DHT22;53422;49.296;6.900;2023-11-21T10:46:53;9.60;99.90
66568;DHT22;53422;49.296;6.900;2023-11-21T10:49:25;9.60;99.90
66568;DHT22;53422;49.296;6.900;2023-11-21T10:51:55;9.60;99.90
66568;DHT22;53422;49.296;6.900;2023-11-21T10:54:22;9.60;99.90
66568;DHT22;53422;49.296;6.900;2023-11-21T10:56:57;9.60;99.90
66568;DHT22;53422;49.296;6.900;2023-11-21T10:59:28;9.70;99.90
66568;DHT22;53422;49.296;6.900;2023-11-21T11:01:54;9.70;99.90
66568;DHT22;53422;49.296;6.900;2023-11-21T11:04:23;9.70;99.90
66568;DHT22;53422;49.296;6.900;2023-11-21T11:07:02;9.70;99.90
66568;DHT22;53422;49.296;6.900;2023-11-21T11:09:30;9.70;99.90
66568;DHT22;53422;49.296;6.900;2023-11-21T11:11:59;9.70;99.90
66568;DHT22;53422;49.296;6.900;2023-11-21T11:14:24;9.80;99.90
66568;DHT22;53422;49.296;6.900;2023-11-21T11:16:54;9.80;99.90
66568;DHT22;53422;49.296;6.900;2023-11-21T11:19:20;9.70;99.90
66568;DHT22;53422;49.296;6.900;2023-11-21T11:30:45;9.80;99.90
66568;DHT22;53422;49.296;6.900;2023-11-21T11:33:36;9.80;99.90
66568;DHT22;53422;49.296;6.900;2023-11-21T11:36:25;9.80;99.90
66568;DHT22;53422;49.296;6.900;2023-11-21T11:38:51;9.80;99.90
66568;DHT22;53422;49.296;6.900;2023-11-21T11:41:30;9.80;99.90
66568;DHT22;53422;49.296;6.900;2023-11-21T11:43:58;9.80;99.90
66568;DHT22;53422;49.296;6.900;2023-11-21T11:46:42;9.80;99.90
66568;DHT22;53422;49.296;6.900;2023-11-21T11:49:10;9.90;99.90
66568;DHT22;53422;49.296;6.900;2023-11-21T11:51:36;9.90;99.90
66568;DHT22;53422;49.296;6.900;2023-11-21T11:54:02;9.90;99.90
66568;DHT22;53422;49.296;6.900;2023-11-21T11:56:33;10.00;99.90
66568;DHT22;53422;49.296;6.900;2023-11-21T11:59:04;10.00;99.90
66568;DHT22;53422;49.296;6.900;2023-11-21T12:01:33;10.00;99.90
66568;DHT22;53422;49.296;6.900;2023-11-21T12:06:46;10.00;99.90
66568;DHT22;53422;49.296;6.900;2023-11-21T12:09:21;10.00;99.90
66568;DHT22;53422;49.296;6.900;2023-11-21T12:11:49;10.00;99.90
66568;DHT22;53422;49.296;6.900;2023-11-21T12:14:15;10.00;99.90
66568;DHT22;53422;49.296;6.900;2023-11-21T12:16:42;10.00;99.90
66568;DHT22;53422;49.296;6.900;2023-11-21T12:19:09;10.00;99.90
66568;DHT22;53422;49.296;6.900;2023-11-21T12:21:36;10.00;99.90
66568;DHT22;53422;49.296;6.900;2023-11-21T12:24:02;10.00;99.90
66568;DHT22;53422;49.296;6.900;2023-11-21T12:26:28;10.00;99.90
66568;DHT22;53422;49.296;6.900;2023-11-21T12:28:54;10.00;99.90
66568;DHT22;53422;49.296;6.900;2023-11-21T12:31:24;10.00;99.90
66568;DHT22;53422;49.296;6.900;2023-11-21T12:33:50;10.00;99.90
66568;DHT22;53422;49.296;6.900;2023-11-21T12:36:16;10.00;99.90
66568;DHT22;53422;49.296;6.900;2023-11-21T12:38:42;10.00;99.90
66568;DHT22;53422;49.296;6.900;2023-11-21T12:41:10;10.00;99.90
66568;DHT22;53422;49.296;6.900;2023-11-21T12:43:36;10.00;99.90
66568;DHT22;53422;49.296;6.900;2023-11-21T12:46:08;10.00;99.90
66568;DHT22;53422;49.296;6.900;2023-11-21T12:48:41;10.00;99.90
66568;DHT22;53422;49.296;6.900;2023-11-21T12:51:11;10.00;99.90
66568;DHT22;53422;49.296;6.900;2023-11-21T12:53:38;10.00;99.90
66568;DHT22;53422;49.296;6.900;2023-11-21T12:56:09;10.00;99.90
66568;DHT22;53422;49.296;6.900;2023-11-21T12:58:37;10.10;99.90
66568;DHT22;53422;49.296;6.900;2023-11-21T13:01:05;10.10;99.90
66568;DHT22;53422;49.296;6.900;2023-11-21T13:03:30;10.00;99.90
66568;DHT22;53422;49.296;6.900;2023-11-21T13:05:58;10.00;99.90
66568;DHT22;53422;49.296;6.900;2023-11-21T13:08:25;10.00;99.90
66568;DHT22;53422;49.296;6.900;2023-11-21T13:10:53;10.00;99.90
66568;DHT22;53422;49.296;6.900;2023-11-21T13:13:21;10.00;99.90
66568;DHT22;53422;49.296;6.900;2023-11-21T13:15:52;10.00;99.90
66568;DHT22;53422;49.296;6.900;2023-11-21T13:18:27;10.00;99.90
66568;DHT22;53422;49.296;6.900;2023-11-21T13:20:54;10.10;99.90
66568;DHT22;53422;49.296;6.900;2023-11-21T13:23:20;10.10;99.90
66568;DHT22;53422;49.296;6.900;2023-11-21T13:25:46;10.00;99.90
66568;DHT22;53422;49.296;6.900;2023-11-21T13:28:13;10.10;99.90
66568;DHT22;53422;49.296;6.900;2023-11-21T13:30:41;10.10;99.90
66568;DHT22;53422;49.296;6.900;2023-11-21T13:33:08;10.10;99.90
66568;DHT22;53422;49.296;6.900;2023-11-21T13:35:35;10.10;99.90
66568;DHT22;53422;49.296;6.900;2023-11-21T13:38:11;10.10;99.90
66568;DHT22;53422;49.296;6.900;2023-11-21T13:40:39;10.00;99.90
66568;DHT22;53422;49.296;6.900;2023-11-21T13:43:10;10.00;99.90
66568;DHT22;53422;49.296;6.900;2023-11-21T13:45:37;10.00;99.90
66568;DHT22;53422;49.296;6.900;2023-11-21T13:48:05;10.10;99.90
66568;DHT22;53422;49.296;6.900;2023-11-21T13:50:38;10.00;99.90
66568;DHT22;53422;49.296;6.900;2023-11-21T13:53:04;10.00;99.90
66568;DHT22;53422;49.296;6.900;2023-11-21T13:55:44;10.10;99.90
66568;DHT22;53422;49.296;6.900;2023-11-21T13:58:11;10.10;99.90
66568;DHT22;53422;49.296;6.900;2023-11-21T14:00:43;10.10;99.90
66568;DHT22;53422;49.296;6.900;2023-11-21T14:03:12;10.10;99.90
66568;DHT22;53422;49.296;6.900;2023-11-21T14:05:47;10.10;99.90
66568;DHT22;53422;49.296;6.900;2023-11-21T14:08:20;10.00;99.90
66568;DHT22;53422;49.296;6.900;2023-11-21T14:10:49;10.00;99.90
66568;DHT22;53422;49.296;6.900;2023-11-21T14:13:23;10.10;99.90
66568;DHT22;53422;49.296;6.900;2023-11-21T14:15:50;10.10;99.90
66568;DHT22;53422;49.296;6.900;2023-11-21T14:18:19;10.10;99.90
66568;DHT22;53422;49.296;6.900;2023-11-21T14:20:52;10.00;99.90
66568;DHT22;53422;49.296;6.900;2023-11-21T14:23:18;10.00;99.90
66568;DHT22;53422;49.296;6.900;2023-11-21T14:25:44;10.00;99.90
66568;DHT22;53422;49.296;6.900;2023-11-21T14:28:10;10.00;99.90
66568;DHT22;53422;49.296;6.900;2023-11-21T14:30:38;10.00;99.90
66568;DHT22;53422;49.296;6.900;2023-11-21T14:33:05;10.00;99.90
66568;DHT22;53422;49.296;6.900;2023-11-21T14:35:31;10.00;99.90
66568;DHT22;53422;49.296;6.900;2023-11-21T14:37:58;10.00;99.90
66568;DHT22;53422;49.296;6.900;2023-11-21T14:40:25;10.00;99.90
66568;DHT22;53422;49.296;6.900;2023-11-21T14:42:51;10.00;99.90
66568;DHT22;53422;49.296;6.900;2023-11-21T14:45:21;10.00;99.90
66568;DHT22;53422;49.296;6.900;2023-11-21T14:47:48;9.90;99.90
66568;DHT22;53422;49.296;6.900;2023-11-21T14:50:24;10.00;99.90
66568;DHT22;53422;49.296;6.900;2023-11-21T14:53:08;10.00;99.90
66568;DHT22;53422;49.296;6.900;2023-11-21T14:55:35;9.90;99.90
66568;DHT22;53422;49.296;6.900;2023-11-21T14:58:16;9.90;99.90
66568;DHT22;53422;49.296;6.900;2023-11-21T15:00:50;9.90;99.90
66568;DHT22;53422;49.296;6.900;2023-11-21T15:03:22;9.90;99.90
66568;DHT22;53422;49.296;6.900;2023-11-21T15:06:01;9.90;99.90
66568;DHT22;53422;49.296;6.900;2023-11-21T15:08:51;9.90;99.90
66568;DHT22;53422;49.296;6.900;2023-11-21T15:11:37;9.80;99.90
66568;DHT22;53422;49.296;6.900;2023-11-21T15:14:04;9.80;99.90
66568;DHT22;53422;49.296;6.900;2023-11-21T15:16:35;9.80;99.90
66568;DHT22;53422;49.296;6.900;2023-11-21T15:19:07;9.80;99.90
66568;DHT22;53422;49.296;6.900;2023-11-21T15:21:33;9.80;99.90
66568;DHT22;53422;49.296;6.900;2023-11-21T15:23:59;9.80;99.90
66568;DHT22;53422;49.296;6.900;2023-11-21T15:26:24;9.80;99.90
66568;DHT22;53422;49.296;6.900;2023-11-21T15:28:51;9.80;99.90
66568;DHT22;53422;49.296;6.900;2023-11-21T15:31:16;9.80;99.90
66568;DHT22;53422;49.296;6.900;2023-11-21T15:33:46;9.80;99.90
66568;DHT22;53422;49.296;6.900;2023-11-21T15:36:12;9.80;99.90
66568;DHT22;53422;49.296;6.900;2023-11-21T15:38:39;9.70;99.90
66568;DHT22;53422;49.296;6.900;2023-11-21T15:41:05;9.80;99.90
66568;DHT22;53422;49.296;6.900;2023-11-21T15:43:34;9.70;99.90
66568;DHT22;53422;49.296;6.900;2023-11-21T15:45:59;9.70;99.90
66568;DHT22;53422;49.296;6.900;2023-11-21T15:48:27;9.70;99.90
66568;DHT22;53422;49.296;6.900;2023-11-21T15:50:53;9.70;99.90
66568;DHT22;53422;49.296;6.900;2023-11-21T15:53:22;9.70;99.90
66568;DHT22;53422;49.296;6.900;2023-11-21T15:55:48;9.70;99.90
66568;DHT22;53422;49.296;6.900;2023-11-21T15:58:13;9.70;99.90